Time;durP1;ratioP1;P1;durP2;ratioP2;P2;SDS_P1;SDS_P2;PMS_P1;PMS_P2;Temp;Humidity;BMP_temperature;BMP_pressure;BME280_temperature;BME280_humidity;BME280_pressure;Samples;Min_cycle;Max_cycle;Signal;HPM_P1;HPM_P2
2022/07/19 00:01:46;;;;;;;;;;;20.30;51.70;;;;;;5122932;27;20378;-46
2022/07/19 00:04:12;;;;;;;;;;;21.20;51.60;;;;;;5144998;27;19927;-49
2022/07/19 00:06:37;;;;;;;;;;;21.80;50.00;;;;;;5144123;27;19930;-44
2022/07/19 00:09:03;;;;;;;;;;;20.80;50.20;;;;;;5141432;27;19948;-47
2022/07/19 00:11:29;;;;;;;;;;;20.50;50.00;;;;;;5146885;27;20374;-46
2022/07/19 00:13:55;;;;;;;;;;;20.40;49.50;;;;;;5141627;27;19954;-47
2022/07/19 00:16:20;;;;;;;;;;;20.10;49.20;;;;;;5140956;27;19934;-47
2022/07/19 00:18:46;;;;;;;;;;;19.80;49.20;;;;;;5127463;27;20184;-47
2022/07/19 00:21:12;;;;;;;;;;;20.00;50.20;;;;;;5141346;27;20305;-48
2022/07/19 00:23:37;;;;;;;;;;;20.90;52.00;;;;;;5124785;27;19931;-54
2022/07/19 00:26:03;;;;;;;;;;;21.80;50.20;;;;;;5127391;27;19934;-46
2022/07/19 00:28:29;;;;;;;;;;;21.30;49.80;;;;;;5141237;27;19972;-46
2022/07/19 00:30:55;;;;;;;;;;;20.70;49.80;;;;;;5146750;27;20079;-47
2022/07/19 00:33:21;;;;;;;;;;;20.30;49.80;;;;;;5141539;27;19938;-50
2022/07/19 00:35:46;;;;;;;;;;;20.00;49.40;;;;;;5139896;27;20374;-45
2022/07/19 00:38:12;;;;;;;;;;;20.10;48.50;;;;;;5146135;27;19923;-45
2022/07/19 00:40:38;;;;;;;;;;;20.00;50.10;;;;;;5141414;27;20022;-45
2022/07/19 00:43:04;;;;;;;;;;;20.80;52.10;;;;;;5141461;27;19951;-45
2022/07/19 00:45:30;;;;;;;;;;;21.80;50.40;;;;;;5146568;27;19926;-45
2022/07/19 00:47:56;;;;;;;;;;;21.30;50.10;;;;;;5140546;27;19972;-45
2022/07/19 00:50:22;;;;;;;;;;;20.50;50.30;;;;;;5146571;27;19923;-46
2022/07/19 00:52:52;;;;;;;;;;;20.30;49.70;;;;;;5140605;27;20263;-47
2022/07/19 00:55:18;;;;;;;;;;;20.20;49.20;;;;;;5139626;27;20391;-46
2022/07/19 00:57:43;;;;;;;;;;;19.90;49.30;;;;;;5146133;27;19939;-48
2022/07/19 01:00:12;;;;;;;;;;;19.80;49.10;;;;;;5140962;27;19923;-45
2022/07/19 01:02:38;;;;;;;;;;;20.40;52.20;;;;;;5141240;27;20241;-46
2022/07/19 01:05:05;;;;;;;;;;;21.40;51.30;;;;;;5146305;27;20374;-48
2022/07/19 01:07:31;;;;;;;;;;;21.40;49.90;;;;;;5105089;27;20309;-47
2022/07/19 01:09:57;;;;;;;;;;;20.70;50.40;;;;;;5145682;27;20710;-50
2022/07/19 01:12:23;;;;;;;;;;;20.10;50.20;;;;;;5140614;27;20845;-46
2022/07/19 01:14:49;;;;;;;;;;;20.20;49.60;;;;;;5140039;27;19979;-48
2022/07/19 01:17:15;;;;;;;;;;;19.90;49.40;;;;;;5146194;27;19923;-48
2022/07/19 01:19:42;;;;;;;;;;;20.10;51.20;;;;;;5142312;27;19973;-48
2022/07/19 01:22:07;;;;;;;;;;;21.10;52.10;;;;;;5140702;27;19999;-46
2022/07/19 01:24:33;;;;;;;;;;;21.90;50.10;;;;;;5149360;27;19930;-46
2022/07/19 01:26:59;;;;;;;;;;;20.90;50.40;;;;;;5144216;27;20371;-45
2022/07/19 01:29:24;;;;;;;;;;;20.60;50.00;;;;;;5146515;27;20302;-54
2022/07/19 01:31:50;;;;;;;;;;;20.30;49.60;;;;;;5146264;27;19978;-45
2022/07/19 01:34:16;;;;;;;;;;;20.10;49.00;;;;;;5144140;27;19927;-49
2022/07/19 01:36:42;;;;;;;;;;;19.80;49.10;;;;;;5149852;27;20298;-45
2022/07/19 01:39:08;;;;;;;;;;;20.20;52.30;;;;;;5144130;27;19923;-47
2022/07/19 01:41:34;;;;;;;;;;;21.20;52.10;;;;;;5143809;27;19923;-46
2022/07/19 01:43:59;;;;;;;;;;;21.80;50.20;;;;;;5149466;27;19923;-46
2022/07/19 01:46:25;;;;;;;;;;;20.60;50.70;;;;;;5143983;27;19949;-50
2022/07/19 01:48:51;;;;;;;;;;;20.20;50.50;;;;;;5143124;27;20009;-52
2022/07/19 01:51:17;;;;;;;;;;;20.20;49.80;;;;;;5130264;27;19923;-47
2022/07/19 01:53:43;;;;;;;;;;;19.90;49.70;;;;;;5143955;27;19923;-45
2022/07/19 01:56:08;;;;;;;;;;;19.80;49.10;;;;;;5149496;27;19934;-47
2022/07/19 01:58:34;;;;;;;;;;;20.30;52.90;;;;;;5144177;27;19930;-46
2022/07/19 02:01:00;;;;;;;;;;;21.30;52.00;;;;;;5143688;27;19929;-45
2022/07/19 02:03:26;;;;;;;;;;;21.70;50.40;;;;;;5149067;27;19934;-50
2022/07/19 02:05:55;;;;;;;;;;;20.90;50.40;;;;;;5144052;27;19931;-48
2022/07/19 02:08:21;;;;;;;;;;;20.30;50.00;;;;;;5142261;27;19923;-50
2022/07/19 02:10:46;;;;;;;;;;;20.10;49.80;;;;;;5149063;27;19941;-46
2022/07/19 02:13:12;;;;;;;;;;;19.80;49.40;;;;;;5143563;27;20046;-47
2022/07/19 02:15:38;;;;;;;;;;;19.80;49.50;;;;;;5148958;27;19931;-46
2022/07/19 02:18:04;;;;;;;;;;;20.60;52.70;;;;;;5143690;27;19942;-47
2022/07/19 02:20:30;;;;;;;;;;;21.50;51.70;;;;;;5143209;27;19923;-47
2022/07/19 02:22:56;;;;;;;;;;;21.30;50.40;;;;;;5148852;27;19930;-45
2022/07/19 02:25:22;;;;;;;;;;;20.70;50.60;;;;;;5142629;27;20021;-49
2022/07/19 02:27:48;;;;;;;;;;;20.30;49.70;;;;;;5142739;27;20091;-46
2022/07/19 02:30:14;;;;;;;;;;;19.90;49.60;;;;;;5148855;27;20290;-46
2022/07/19 02:32:40;;;;;;;;;;;19.90;49.20;;;;;;5143543;27;19931;-48
2022/07/19 02:35:06;;;;;;;;;;;19.90;51.30;;;;;;5148605;27;20282;-55
2022/07/19 02:37:32;;;;;;;;;;;20.80;52.80;;;;;;5143551;27;19948;-46
2022/07/19 02:39:58;;;;;;;;;;;21.80;51.00;;;;;;5124660;27;20149;-46
2022/07/19 02:42:23;;;;;;;;;;;21.00;50.60;;;;;;5148878;27;20282;-48
2022/07/19 02:44:49;;;;;;;;;;;20.30;50.90;;;;;;5141823;27;20077;-45
2022/07/19 02:47:15;;;;;;;;;;;20.30;49.60;;;;;;5142724;27;19988;-46
2022/07/19 02:49:41;;;;;;;;;;;19.90;49.60;;;;;;5148529;27;20408;-45
2022/07/19 02:52:06;;;;;;;;;;;19.80;50.70;;;;;;5143179;27;19927;-46
2022/07/19 02:54:32;;;;;;;;;;;20.70;52.70;;;;;;5146536;27;19934;-53
2022/07/19 02:56:58;;;;;;;;;;;21.60;51.40;;;;;;5145156;27;19923;-45
2022/07/19 02:59:24;;;;;;;;;;;21.30;50.40;;;;;;5142792;27;19923;-47
2022/07/19 03:01:49;;;;;;;;;;;20.40;50.80;;;;;;5147544;27;19930;-48
2022/07/19 03:04:15;;;;;;;;;;;20.10;49.90;;;;;;5141946;27;19934;-46
2022/07/19 03:06:41;;;;;;;;;;;20.00;49.50;;;;;;5124287;27;20559;-49
2022/07/19 03:09:07;;;;;;;;;;;20.00;49.10;;;;;;5148198;27;20091;-48
2022/07/19 03:11:32;;;;;;;;;;;20.30;52.30;;;;;;5142884;27;19923;-46
2022/07/19 03:13:58;;;;;;;;;;;21.20;52.40;;;;;;5143671;27;20447;-56
2022/07/19 03:16:24;;;;;;;;;;;21.70;50.50;;;;;;5147084;27;19949;-51
2022/07/19 03:18:50;;;;;;;;;;;20.80;50.50;;;;;;5142783;27;19975;-46
2022/07/19 03:21:15;;;;;;;;;;;20.30;50.00;;;;;;5146662;27;19934;-46
2022/07/19 03:23:41;;;;;;;;;;;20.10;49.80;;;;;;5141898;27;20335;-48
2022/07/19 03:26:07;;;;;;;;;;;19.90;49.50;;;;;;5142616;27;19923;-46
2022/07/19 03:28:33;;;;;;;;;;;20.10;50.40;;;;;;5148011;27;19926;-48
2022/07/19 03:30:59;;;;;;;;;;;20.80;52.60;;;;;;5142813;27;19929;-45
2022/07/19 03:33:25;;;;;;;;;;;21.80;50.90;;;;;;5142056;27;19923;-47
2022/07/19 03:35:50;;;;;;;;;;;21.20;50.40;;;;;;5129340;27;19927;-47
2022/07/19 03:38:16;;;;;;;;;;;20.50;50.40;;;;;;5141895;27;19942;-46
2022/07/19 03:40:43;;;;;;;;;;;20.10;49.90;;;;;;5146498;27;19923;-46
2022/07/19 03:43:09;;;;;;;;;;;20.00;49.40;;;;;;5141227;27;19929;-47
2022/07/19 03:45:35;;;;;;;;;;;19.80;49.40;;;;;;5142037;27;19924;-47
2022/07/19 03:48:00;;;;;;;;;;;20.10;52.60;;;;;;5147699;27;19972;-45
2022/07/19 03:50:27;;;;;;;;;;;21.10;52.50;;;;;;5141971;27;20608;-46
2022/07/19 03:52:52;;;;;;;;;;;21.70;50.60;;;;;;5141906;27;20406;-46
2022/07/19 03:55:18;;;;;;;;;;;20.80;51.00;;;;;;5147513;27;19930;-46
2022/07/19 03:57:44;;;;;;;;;;;20.30;50.30;;;;;;5140936;27;19984;-46
2022/07/19 04:00:10;;;;;;;;;;;20.00;50.20;;;;;;5146973;27;19949;-48
2022/07/19 04:02:36;;;;;;;;;;;19.80;49.80;;;;;;5141952;27;19928;-45
2022/07/19 04:05:01;;;;;;;;;;;20.00;50.10;;;;;;5141992;27;20002;-47
2022/07/19 04:07:27;;;;;;;;;;;20.70;53.10;;;;;;5147578;27;19975;-47
2022/07/19 04:09:53;;;;;;;;;;;21.60;51.60;;;;;;5141649;27;19922;-48
2022/07/19 04:12:19;;;;;;;;;;;21.10;50.90;;;;;;5142078;27;20089;-47
2022/07/19 04:14:45;;;;;;;;;;;20.50;50.70;;;;;;5147125;27;20403;-46
2022/07/19 04:17:10;;;;;;;;;;;20.10;50.30;;;;;;5140140;27;20064;-47
2022/07/19 04:19:36;;;;;;;;;;;20.00;49.60;;;;;;5146865;27;19934;-52
2022/07/19 04:22:02;;;;;;;;;;;19.80;49.30;;;;;;5122230;27;19931;-47
2022/07/19 04:24:28;;;;;;;;;;;20.40;53.30;;;;;;5141881;27;19923;-47
2022/07/19 04:26:53;;;;;;;;;;;21.40;52.10;;;;;;5147135;27;20023;-46
2022/07/19 04:29:19;;;;;;;;;;;21.40;50.50;;;;;;5141115;27;20397;-45
2022/07/19 04:31:45;;;;;;;;;;;20.50;50.90;;;;;;5141548;27;19936;-45
2022/07/19 04:34:11;;;;;;;;;;;20.40;50.20;;;;;;5145836;27;20796;-49
2022/07/19 04:36:36;;;;;;;;;;;19.90;50.20;;;;;;5140542;27;19931;-48
2022/07/19 04:39:02;;;;;;;;;;;20.00;52.00;;;;;;5144741;27;19923;-56
2022/07/19 04:41:28;;;;;;;;;;;20.90;53.10;;;;;;5143746;27;19958;-46
2022/07/19 04:43:54;;;;;;;;;;;21.80;50.90;;;;;;5141429;27;19959;-46
2022/07/19 04:46:20;;;;;;;;;;;21.00;50.70;;;;;;5146241;27;19923;-45
2022/07/19 04:48:45;;;;;;;;;;;20.50;50.40;;;;;;5141140;27;19927;-48
2022/07/19 04:51:11;;;;;;;;;;;20.20;50.40;;;;;;5141095;27;20446;-46
2022/07/19 04:53:37;;;;;;;;;;;20.10;49.50;;;;;;5144154;27;21461;-51
2022/07/19 04:56:03;;;;;;;;;;;19.90;49.20;;;;;;5140559;27;19923;-50
2022/07/19 04:58:28;;;;;;;;;;;20.00;51.40;;;;;;5142307;27;19923;-55
2022/07/19 05:00:54;;;;;;;;;;;20.80;53.10;;;;;;5145559;27;19973;-45
2022/07/19 05:03:20;;;;;;;;;;;21.80;51.40;;;;;;5141232;27;19927;-47
2022/07/19 05:05:46;;;;;;;;;;;21.00;51.20;;;;;;5146100;27;19927;-45
2022/07/19 05:08:12;;;;;;;;;;;20.40;51.00;;;;;;5140919;27;20397;-49
2022/07/19 05:10:38;;;;;;;;;;;20.30;50.20;;;;;;5140136;27;19923;-47
2022/07/19 05:13:04;;;;;;;;;;;20.00;50.00;;;;;;5145609;27;19975;-47
2022/07/19 05:15:30;;;;;;;;;;;20.00;50.50;;;;;;5140659;27;19927;-45
2022/07/19 05:17:56;;;;;;;;;;;20.80;53.20;;;;;;5140872;27;19923;-45
2022/07/19 05:20:22;;;;;;;;;;;21.70;51.50;;;;;;5146282;27;19945;-44
2022/07/19 05:22:47;;;;;;;;;;;21.20;50.80;;;;;;5140366;27;19931;-51
2022/07/19 05:25:13;;;;;;;;;;;20.70;50.50;;;;;;5146125;27;19949;-46
2022/07/19 05:27:39;;;;;;;;;;;20.40;50.30;;;;;;5140672;27;19997;-46
2022/07/19 05:30:05;;;;;;;;;;;20.10;50.20;;;;;;5139328;27;19946;-46
2022/07/19 05:32:31;;;;;;;;;;;20.00;49.70;;;;;;5145628;27;19980;-46
2022/07/19 05:34:57;;;;;;;;;;;20.30;52.80;;;;;;5140355;27;20030;-46
2022/07/19 05:37:23;;;;;;;;;;;21.30;52.40;;;;;;5140502;27;19923;-46
2022/07/19 05:39:48;;;;;;;;;;;21.70;50.60;;;;;;5146119;27;19923;-46
2022/07/19 05:42:14;;;;;;;;;;;20.80;50.80;;;;;;5140031;27;20421;-47
2022/07/19 05:44:40;;;;;;;;;;;20.50;50.50;;;;;;5145940;27;20328;-45
2022/07/19 05:47:06;;;;;;;;;;;20.20;50.10;;;;;;5139742;27;19938;-50
2022/07/19 05:49:32;;;;;;;;;;;20.00;49.80;;;;;;5139468;27;19931;-46
2022/07/19 05:51:58;;;;;;;;;;;19.90;49.20;;;;;;5145800;27;19930;-45
2022/07/19 05:54:23;;;;;;;;;;;20.30;52.70;;;;;;5140467;27;19970;-49
2022/07/19 05:56:50;;;;;;;;;;;21.30;52.60;;;;;;5140314;27;19923;-49
2022/07/19 05:59:16;;;;;;;;;;;21.80;50.80;;;;;;5145541;27;19976;-45
2022/07/19 06:01:42;;;;;;;;;;;20.80;51.00;;;;;;5140002;27;19934;-46
2022/07/19 06:04:07;;;;;;;;;;;20.50;50.60;;;;;;5145535;27;19922;-54
2022/07/19 06:06:33;;;;;;;;;;;20.10;50.50;;;;;;5141650;27;19974;-49
2022/07/19 06:08:59;;;;;;;;;;;19.90;50.20;;;;;;5143057;27;20496;-46
2022/07/19 06:11:25;;;;;;;;;;;19.90;49.60;;;;;;5149136;27;20372;-47
2022/07/19 06:13:51;;;;;;;;;;;20.10;51.10;;;;;;5143892;27;19945;-47
2022/07/19 06:16:16;;;;;;;;;;;20.80;53.50;;;;;;5124793;27;20352;-45
2022/07/19 06:18:42;;;;;;;;;;;21.80;51.80;;;;;;5129005;27;19935;-45
2022/07/19 06:21:09;;;;;;;;;;;21.20;51.40;;;;;;5143555;27;19923;-45
2022/07/19 06:23:35;;;;;;;;;;;20.80;50.80;;;;;;5145754;27;19940;-55
2022/07/19 06:26:01;;;;;;;;;;;20.30;50.70;;;;;;5145215;27;19950;-46
2022/07/19 06:28:27;;;;;;;;;;;20.20;50.20;;;;;;5143248;27;20370;-50
2022/07/19 06:30:52;;;;;;;;;;;19.90;50.00;;;;;;5148777;27;19923;-45
2022/07/19 06:33:18;;;;;;;;;;;20.00;51.30;;;;;;5143293;27;19969;-45
2022/07/19 06:35:44;;;;;;;;;;;20.80;53.30;;;;;;5143055;27;20021;-45
2022/07/19 06:38:10;;;;;;;;;;;21.80;52.20;;;;;;5148750;27;19992;-44
2022/07/19 06:40:36;;;;;;;;;;;21.30;51.40;;;;;;5143301;27;19930;-45
2022/07/19 06:43:01;;;;;;;;;;;20.80;50.80;;;;;;5142536;27;19938;-53
2022/07/19 06:45:27;;;;;;;;;;;20.50;50.50;;;;;;5147814;27;19958;-45
2022/07/19 06:47:53;;;;;;;;;;;20.40;49.90;;;;;;5143283;27;19923;-44
2022/07/19 06:50:19;;;;;;;;;;;20.10;50.00;;;;;;5148540;27;19937;-47
2022/07/19 06:52:45;;;;;;;;;;;20.00;49.40;;;;;;5143241;27;19930;-46
2022/07/19 06:55:10;;;;;;;;;;;19.90;49.40;;;;;;5142430;27;20362;-49
2022/07/19 06:57:36;;;;;;;;;;;20.10;51.60;;;;;;5148409;27;19923;-49
2022/07/19 07:00:02;;;;;;;;;;;20.90;53.50;;;;;;5142940;27;19930;-46
2022/07/19 07:02:28;;;;;;;;;;;21.80;52.20;;;;;;5141467;27;20437;-45
2022/07/19 07:04:54;;;;;;;;;;;21.10;51.70;;;;;;5147997;27;19934;-45
2022/07/19 07:07:20;;;;;;;;;;;20.70;51.40;;;;;;5124138;27;19938;-46
2022/07/19 07:09:46;;;;;;;;;;;20.40;50.90;;;;;;5148264;27;19944;-47
2022/07/19 07:12:12;;;;;;;;;;;20.30;50.70;;;;;;5142619;27;19927;-45
2022/07/19 07:14:37;;;;;;;;;;;20.10;49.80;;;;;;5142168;27;19923;-46
2022/07/19 07:17:03;;;;;;;;;;;19.90;49.80;;;;;;5147153;27;19923;-47
2022/07/19 07:19:29;;;;;;;;;;;19.90;49.70;;;;;;5141656;27;19923;-48
2022/07/19 07:21:57;;;;;;;;;;;20.00;52.00;;;;;;5141494;27;20439;-47
2022/07/19 07:24:23;;;;;;;;;;;20.90;53.90;;;;;;5147727;27;19930;-47
2022/07/19 07:26:48;;;;;;;;;;;21.80;52.50;;;;;;5142534;27;19969;-46
2022/07/19 07:29:14;;;;;;;;;;;21.30;51.60;;;;;;5147943;27;19923;-48
2022/07/19 07:31:40;;;;;;;;;;;20.70;51.50;;;;;;5141981;27;19923;-46
2022/07/19 07:34:06;;;;;;;;;;;20.30;51.10;;;;;;5142075;27;20404;-47
2022/07/19 07:36:31;;;;;;;;;;;20.30;50.60;;;;;;5147899;27;19934;-44
2022/07/19 07:38:57;;;;;;;;;;;20.20;50.10;;;;;;5122157;27;20332;-46
2022/07/19 07:41:23;;;;;;;;;;;20.20;49.60;;;;;;5142218;27;19931;-45
2022/07/19 07:43:49;;;;;;;;;;;20.00;49.70;;;;;;5147714;27;19927;-47
2022/07/19 07:46:14;;;;;;;;;;;20.30;52.60;;;;;;5142186;27;19923;-47
2022/07/19 07:48:40;;;;;;;;;;;21.10;53.90;;;;;;5146626;27;20328;-54
2022/07/19 07:51:06;;;;;;;;;;;21.80;52.30;;;;;;5143070;27;19927;-46
2022/07/19 07:53:32;;;;;;;;;;;21.20;51.90;;;;;;5141929;27;19971;-47
2022/07/19 07:55:57;;;;;;;;;;;20.70;51.50;;;;;;5146417;27;19966;-47
2022/07/19 07:58:23;;;;;;;;;;;20.40;50.80;;;;;;5141101;27;19930;-45
2022/07/19 08:00:49;;;;;;;;;;;20.20;50.90;;;;;;5141826;27;19923;-48
2022/07/19 08:03:16;;;;;;;;;;;20.20;50.10;;;;;;5147392;27;19931;-45
2022/07/19 08:05:47;;;;;;;;;;;20.20;49.70;;;;;;5123105;27;19923;-44
2022/07/19 08:08:15;;;;;;;;;;;20.10;49.50;;;;;;5141481;27;19986;-49
2022/07/19 08:10:41;;;;;;;;;;;20.20;51.30;;;;;;5146815;27;20553;-49
2022/07/19 08:13:07;;;;;;;;;;;20.90;53.80;;;;;;5141757;27;19938;-48
2022/07/19 08:15:33;;;;;;;;;;;21.80;52.60;;;;;;5145315;27;20410;-46
2022/07/19 08:17:59;;;;;;;;;;;21.30;51.80;;;;;;5141268;27;19923;-50
2022/07/19 08:20:25;;;;;;;;;;;20.80;51.00;;;;;;5141463;27;20406;-50
2022/07/19 08:22:51;;;;;;;;;;;20.70;50.60;;;;;;5147471;27;19923;-46
2022/07/19 08:25:17;;;;;;;;;;;20.30;50.90;;;;;;5141549;27;19923;-47
2022/07/19 08:27:43;;;;;;;;;;;20.30;49.70;;;;;;5122514;27;19935;-45
2022/07/19 08:30:09;;;;;;;;;;;20.20;49.30;;;;;;5146753;27;19982;-45
2022/07/19 08:32:35;;;;;;;;;;;20.30;48.80;;;;;;5140456;27;19953;-46
2022/07/19 08:35:01;;;;;;;;;;;20.20;48.80;;;;;;5145836;27;19952;-46
2022/07/19 08:37:27;;;;;;;;;;;20.10;48.70;;;;;;5141256;27;19923;-46
2022/07/19 08:39:53;;;;;;;;;;;19.90;48.90;;;;;;5141498;27;19970;-48
2022/07/19 08:42:19;;;;;;;;;;;19.90;49.00;;;;;;5146818;27;19923;-49
2022/07/19 08:44:45;;;;;;;;;;;19.80;49.50;;;;;;5140949;27;19937;-50
2022/07/19 08:47:11;;;;;;;;;;;20.70;52.30;;;;;;5140987;27;19923;-47
2022/07/19 08:49:37;;;;;;;;;;;21.40;52.30;;;;;;5146800;27;19968;-49
2022/07/19 08:52:04;;;;;;;;;;;22.00;50.70;;;;;;5139485;27;19923;-45
2022/07/19 08:54:29;;;;;;;;;;;21.20;50.80;;;;;;5144724;27;19927;-54
2022/07/19 08:59:39;;;;;;;;;;;20.60;50.00;;;;;;5141217;27;20416;-50
2022/07/19 09:02:05;;;;;;;;;;;20.40;49.40;;;;;;5146629;27;19923;-48
2022/07/19 09:04:31;;;;;;;;;;;20.30;49.20;;;;;;5140649;27;20298;-46
2022/07/19 09:06:57;;;;;;;;;;;20.30;49.10;;;;;;5141030;27;19923;-49
2022/07/19 09:09:30;;;;;;;;;;;20.10;48.80;;;;;;5145537;27;20026;-48
2022/07/19 09:11:56;;;;;;;;;;;20.20;49.20;;;;;;5121741;27;19930;-47
2022/07/19 09:14:34;;;;;;;;;;;20.80;52.20;;;;;;5140713;27;19929;-50
2022/07/19 09:17:01;;;;;;;;;;;21.80;51.10;;;;;;5146117;27;19927;-47
2022/07/19 09:19:28;;;;;;;;;;;21.50;50.40;;;;;;5140738;27;19924;-50
2022/07/19 09:21:58;;;;;;;;;;;20.90;50.40;;;;;;5119960;27;19924;-46
2022/07/19 09:24:24;;;;;;;;;;;20.80;49.90;;;;;;5146218;27;19929;-46
2022/07/19 09:26:54;;;;;;;;;;;20.60;49.50;;;;;;5122128;27;19933;-48
2022/07/19 09:29:20;;;;;;;;;;;20.50;49.30;;;;;;5143204;27;19926;-54
2022/07/19 09:32:18;;;;;;;;;;;20.50;48.80;;;;;;5142073;27;19927;-49
2022/07/19 09:35:01;;;;;;;;;;;20.30;49.00;;;;;;5092884;27;19929;-49
2022/07/19 09:37:28;;;;;;;;;;;20.10;49.10;;;;;;5140632;27;20029;-48
2022/07/19 09:39:54;;;;;;;;;;;20.20;48.80;;;;;;5145565;27;19931;-46
2022/07/19 09:42:21;;;;;;;;;;;20.10;48.50;;;;;;5125537;27;19931;-47
2022/07/19 09:44:49;;;;;;;;;;;20.00;48.70;;;;;;5149225;27;20018;-51
2022/07/19 09:47:15;;;;;;;;;;;20.10;48.30;;;;;;5125624;27;19945;-49
2022/07/19 09:49:40;;;;;;;;;;;20.00;50.30;;;;;;5123100;27;19928;-50
2022/07/19 09:52:06;;;;;;;;;;;20.90;51.60;;;;;;5149293;27;19938;-48
2022/07/19 09:54:32;;;;;;;;;;;21.80;50.50;;;;;;5144038;27;19927;-48
2022/07/19 09:56:58;;;;;;;;;;;21.60;49.70;;;;;;5123618;27;19927;-46
2022/07/19 09:59:24;;;;;;;;;;;20.80;50.10;;;;;;5148763;27;19941;-48
2022/07/19 10:01:51;;;;;;;;;;;20.70;49.50;;;;;;5143664;27;20413;-51
2022/07/19 10:04:18;;;;;;;;;;;20.50;49.30;;;;;;5144497;27;19923;-57
2022/07/19 10:06:46;;;;;;;;;;;20.30;49.20;;;;;;5147621;27;20429;-46
2022/07/19 10:09:12;;;;;;;;;;;20.30;48.60;;;;;;5143850;27;19940;-49
2022/07/19 10:11:38;;;;;;;;;;;20.40;48.30;;;;;;5149216;27;19966;-48
2022/07/19 10:14:04;;;;;;;;;;;20.30;48.30;;;;;;5143771;27;19966;-45
2022/07/19 10:16:42;;;;;;;;;;;20.00;48.80;;;;;;5143415;27;19937;-44
2022/07/19 10:19:08;;;;;;;;;;;20.20;48.10;;;;;;5148969;27;19940;-48
2022/07/19 10:21:34;;;;;;;;;;;20.30;47.90;;;;;;5125123;27;19927;-44
2022/07/19 10:24:00;;;;;;;;;;;20.30;47.70;;;;;;5121413;27;19947;-46
2022/07/19 10:26:35;;;;;;;;;;;20.30;47.70;;;;;;5148156;27;19924;-47
2022/07/19 10:29:11;;;;;;;;;;;20.00;49.00;;;;;;5143290;27;20318;-48
2022/07/19 10:31:37;;;;;;;;;;;20.90;50.60;;;;;;5124061;27;19967;-45
2022/07/19 10:34:03;;;;;;;;;;;21.80;49.70;;;;;;5148825;27;19934;-47
2022/07/19 10:36:38;;;;;;;;;;;21.50;49.10;;;;;;5142868;27;20021;-46
2022/07/19 10:39:20;;;;;;;;;;;20.90;49.40;;;;;;5146383;27;19927;-52
2022/07/19 10:42:04;;;;;;;;;;;20.70;49.10;;;;;;5143307;27;19923;-44
2022/07/19 10:44:30;;;;;;;;;;;20.50;49.00;;;;;;5124195;27;19923;-47
2022/07/19 10:46:56;;;;;;;;;;;20.30;48.90;;;;;;5142978;27;19944;-52
2022/07/19 10:49:40;;;;;;;;;;;20.50;48.30;;;;;;5148865;27;20003;-45
2022/07/19 10:52:25;;;;;;;;;;;20.40;48.10;;;;;;5124771;27;19923;-47
2022/07/19 10:55:09;;;;;;;;;;;20.30;47.90;;;;;;5142645;27;20294;-50
2022/07/19 10:57:37;;;;;;;;;;;20.30;47.80;;;;;;5147556;27;21247;-46
2022/07/19 11:00:22;;;;;;;;;;;20.20;48.00;;;;;;5141858;27;20704;-48
2022/07/19 11:02:48;;;;;;;;;;;20.30;47.60;;;;;;5137992;27;20014;-46
2022/07/19 11:05:23;;;;;;;;;;;20.10;47.90;;;;;;5148199;27;20393;-50
2022/07/19 11:07:49;;;;;;;;;;;20.20;49.40;;;;;;5142892;27;19931;-46
2022/07/19 11:10:27;;;;;;;;;;;21.30;49.90;;;;;;5142787;27;19927;-47
2022/07/19 11:12:53;;;;;;;;;;;21.90;48.60;;;;;;5148033;27;20022;-44
2022/07/19 11:15:19;;;;;;;;;;;21.20;49.20;;;;;;5142670;27;20396;-45
2022/07/19 11:17:58;;;;;;;;;;;20.80;49.20;;;;;;5145286;27;19966;-56
2022/07/19 11:20:28;;;;;;;;;;;20.60;48.70;;;;;;5147031;27;19934;-46
2022/07/19 11:22:55;;;;;;;;;;;20.50;48.40;;;;;;5142450;27;19927;-44
2022/07/19 11:25:30;;;;;;;;;;;20.40;48.10;;;;;;5148122;27;20014;-46
2022/07/19 11:27:56;;;;;;;;;;;20.40;47.80;;;;;;5145592;27;19933;-46
2022/07/19 11:30:22;;;;;;;;;;;20.30;47.70;;;;;;5142074;27;19929;-48
2022/07/19 11:32:52;;;;;;;;;;;20.20;47.80;;;;;;5147469;27;20374;-45
2022/07/19 11:35:18;;;;;;;;;;;20.20;47.70;;;;;;5123338;27;19929;-45
2022/07/19 11:37:43;;;;;;;;;;;20.30;47.60;;;;;;5121451;27;19924;-47
2022/07/19 11:40:10;;;;;;;;;;;20.30;47.40;;;;;;5147360;27;19930;-46
2022/07/19 11:42:43;;;;;;;;;;;20.10;47.60;;;;;;5138027;27;20006;-45
2022/07/19 11:45:09;;;;;;;;;;;20.30;49.30;;;;;;5142311;27;20424;-45
2022/07/19 11:47:35;;;;;;;;;;;21.40;49.30;;;;;;5147520;27;19992;-51
2022/07/19 11:50:04;;;;;;;;;;;22.20;47.70;;;;;;5141871;27;19923;-48
2022/07/19 11:52:40;;;;;;;;;;;21.30;48.40;;;;;;5147311;27;19923;-51
2022/07/19 11:55:06;;;;;;;;;;;20.80;48.80;;;;;;5145331;27;20200;-46
2022/07/19 11:57:32;;;;;;;;;;;20.60;48.70;;;;;;5140668;27;19923;-45
2022/07/19 11:59:58;;;;;;;;;;;20.60;48.10;;;;;;5146944;27;19934;-47
2022/07/19 12:02:24;;;;;;;;;;;20.30;48.50;;;;;;5141906;27;19934;-47
2022/07/19 12:04:49;;;;;;;;;;;20.40;47.80;;;;;;5141462;27;19923;-46
2022/07/19 12:07:18;;;;;;;;;;;20.40;47.50;;;;;;5147046;27;20385;-47
2022/07/19 12:09:43;;;;;;;;;;;20.50;47.40;;;;;;5141708;27;19923;-45
2022/07/19 12:12:13;;;;;;;;;;;20.30;47.40;;;;;;5141494;27;20279;-48
2022/07/19 12:14:40;;;;;;;;;;;20.20;47.70;;;;;;5145378;27;19923;-44
2022/07/19 12:17:10;;;;;;;;;;;20.60;47.00;;;;;;5122767;27;19923;-44
2022/07/19 12:19:36;;;;;;;;;;;20.30;47.50;;;;;;5146940;27;20453;-51
2022/07/19 12:22:01;;;;;;;;;;;20.10;47.90;;;;;;5122040;27;19952;-47
2022/07/19 12:24:29;;;;;;;;;;;20.80;49.80;;;;;;5141450;27;19936;-47
2022/07/19 12:26:56;;;;;;;;;;;21.80;48.80;;;;;;5146429;27;20279;-49
2022/07/19 12:29:25;;;;;;;;;;;21.90;47.70;;;;;;5141366;27;19923;-48
2022/07/19 12:31:56;;;;;;;;;;;21.10;48.80;;;;;;5140429;27;20402;-50
2022/07/19 12:34:22;;;;;;;;;;;20.80;48.40;;;;;;5145990;27;19932;-47
2022/07/19 12:36:47;;;;;;;;;;;20.70;48.10;;;;;;5141226;27;20402;-45
2022/07/19 12:39:17;;;;;;;;;;;20.70;48.00;;;;;;5141346;27;19967;-45
2022/07/19 12:41:53;;;;;;;;;;;20.40;48.20;;;;;;5128329;27;19929;-46
2022/07/19 12:44:19;;;;;;;;;;;20.40;47.60;;;;;;5122290;27;19923;-47
2022/07/19 12:46:44;;;;;;;;;;;20.50;47.50;;;;;;5145696;27;20446;-52
2022/07/19 12:49:10;;;;;;;;;;;20.20;47.90;;;;;;5142355;27;19938;-46
2022/07/19 12:51:42;;;;;;;;;;;20.30;47.50;;;;;;5139442;27;20059;-47
2022/07/19 12:54:08;;;;;;;;;;;20.20;47.60;;;;;;5127268;27;20382;-48
2022/07/19 12:56:34;;;;;;;;;;;20.10;48.10;;;;;;5140972;27;19929;-47
2022/07/19 13:01:44;;;;;;;;;;;20.20;47.60;;;;;;5146271;27;19929;-46
2022/07/19 13:04:10;;;;;;;;;;;20.10;48.10;;;;;;5140693;27;19923;-46
2022/07/19 13:06:36;;;;;;;;;;;20.80;50.10;;;;;;5140676;27;20406;-47
2022/07/19 13:09:02;;;;;;;;;;;21.80;48.80;;;;;;5144877;27;20091;-47
2022/07/19 13:11:28;;;;;;;;;;;21.50;48.90;;;;;;5140030;27;19930;-48
2022/07/19 13:13:53;;;;;;;;;;;21.10;48.80;;;;;;5143837;27;19948;-52
2022/07/19 13:16:22;;;;;;;;;;;20.80;48.80;;;;;;5142803;27;19923;-45
2022/07/19 13:18:49;;;;;;;;;;;20.50;48.80;;;;;;5140707;27;19973;-44
2022/07/19 13:21:15;;;;;;;;;;;20.50;48.40;;;;;;5145738;27;19927;-44
2022/07/19 13:23:41;;;;;;;;;;;20.60;48.20;;;;;;5140452;27;20433;-46
2022/07/19 13:26:07;;;;;;;;;;;20.40;48.30;;;;;;5140278;27;19923;-45
2022/07/19 13:28:34;;;;;;;;;;;20.30;47.90;;;;;;5144539;27;19983;-45
2022/07/19 13:31:00;;;;;;;;;;;20.40;47.80;;;;;;5140344;27;19923;-45
2022/07/19 13:33:26;;;;;;;;;;;20.20;48.00;;;;;;5140541;27;19923;-44
2022/07/19 13:35:52;;;;;;;;;;;20.30;47.90;;;;;;5146118;27;19945;-45
2022/07/19 13:38:18;;;;;;;;;;;20.30;47.40;;;;;;5120002;27;20374;-45
2022/07/19 13:40:44;;;;;;;;;;;20.30;47.40;;;;;;5145662;27;19923;-46
2022/07/19 13:43:09;;;;;;;;;;;20.20;47.80;;;;;;5140390;27;19934;-45
2022/07/19 13:45:35;;;;;;;;;;;20.20;47.60;;;;;;5139122;27;19924;-49
2022/07/19 13:48:04;;;;;;;;;;;20.20;48.70;;;;;;5145218;27;19946;-47
2022/07/19 13:50:30;;;;;;;;;;;21.10;49.50;;;;;;5140336;27;19976;-47
2022/07/19 13:52:56;;;;;;;;;;;22.10;48.30;;;;;;5122018;27;20437;-45
2022/07/19 13:55:22;;;;;;;;;;;21.40;48.50;;;;;;5145916;27;20385;-45
2022/07/19 13:57:48;;;;;;;;;;;21.00;48.60;;;;;;5139518;27;19950;-46
2022/07/19 14:00:17;;;;;;;;;;;20.80;48.50;;;;;;5145607;27;19927;-46
2022/07/19 14:02:43;;;;;;;;;;;20.70;48.10;;;;;;5141273;27;19939;-47
2022/07/19 14:05:09;;;;;;;;;;;20.70;47.90;;;;;;5138703;27;19923;-43
2022/07/19 14:07:35;;;;;;;;;;;20.60;47.80;;;;;;5145396;27;20318;-45
2022/07/19 14:10:00;;;;;;;;;;;20.40;47.90;;;;;;5140192;27;19939;-47
2022/07/19 14:12:26;;;;;;;;;;;20.50;47.50;;;;;;5140181;27;19928;-45
2022/07/19 14:14:52;;;;;;;;;;;20.50;47.20;;;;;;5145206;27;20401;-45
2022/07/19 14:17:18;;;;;;;;;;;20.20;48.00;;;;;;5139782;27;19927;-46
2022/07/19 14:19:43;;;;;;;;;;;20.50;47.50;;;;;;5142377;27;19978;-53